createdAt,value
2019-04-06T00:00:06.609Z,0.87
2019-04-06T00:02:36.686Z,0.77
2019-04-06T00:05:07.429Z,0.90
2019-04-06T00:07:35.939Z,0.80
2019-04-06T00:10:25.319Z,0.60
2019-04-06T00:12:53.777Z,0.90
2019-04-06T00:15:22.561Z,1.00
2019-04-06T00:17:51.442Z,0.80
2019-04-06T00:20:20.233Z,0.87
2019-04-06T00:22:49.045Z,0.80
2019-04-06T00:25:17.537Z,0.87
2019-04-06T00:27:46.294Z,0.70
2019-04-06T00:30:15.900Z,0.70
2019-04-06T00:32:51.800Z,0.47
2019-04-06T00:35:20.539Z,0.70
2019-04-06T00:37:49.073Z,0.60
2019-04-06T00:40:17.910Z,0.50
2019-04-06T00:42:46.722Z,0.60
2019-04-06T00:45:15.266Z,0.40
2019-04-06T00:47:43.705Z,0.80
2019-04-06T00:50:12.845Z,0.50
2019-04-06T00:52:41.310Z,0.50
2019-04-06T00:55:09.829Z,0.30
2019-04-06T00:57:38.271Z,0.20
2019-04-06T01:00:08.317Z,0.43
2019-04-06T01:02:37.117Z,0.40
2019-04-06T01:05:07.461Z,0.50
2019-04-06T01:07:35.996Z,0.50
2019-04-06T01:10:05.589Z,0.50
2019-04-06T01:12:34.304Z,0.50
2019-04-06T01:15:02.867Z,0.50
2019-04-06T01:17:31.381Z,0.60
2019-04-06T01:19:59.827Z,0.50
2019-04-06T01:22:28.654Z,0.50
2019-04-06T01:24:57.530Z,0.40
2019-04-06T01:27:25.968Z,0.50
2019-04-06T01:29:54.433Z,0.40
2019-04-06T01:32:23.180Z,0.40
2019-04-06T01:34:51.622Z,0.43
2019-04-06T01:37:20.102Z,0.40
2019-04-06T01:39:48.596Z,0.40
2019-04-06T01:42:17.104Z,0.30
2019-04-06T01:44:45.897Z,0.30
2019-04-06T01:47:14.686Z,0.40
2019-04-06T01:49:43.120Z,0.40
2019-04-06T01:52:11.587Z,0.50
2019-04-06T01:54:40.025Z,0.50
2019-04-06T01:57:08.471Z,0.37
2019-04-06T01:59:36.932Z,0.40
2019-04-06T02:02:09.758Z,0.43
2019-04-06T02:04:38.562Z,0.70
2019-04-06T02:07:07.068Z,0.40
2019-04-06T02:09:35.508Z,0.43
2019-04-06T02:12:04.040Z,0.40
2019-04-06T02:14:32.804Z,0.60
2019-04-06T02:17:01.574Z,0.53
2019-04-06T02:19:30.066Z,0.50
2019-04-06T02:21:58.851Z,0.60
2019-04-06T02:24:27.290Z,0.50
2019-04-06T02:26:55.780Z,0.70
2019-04-06T02:29:24.601Z,0.43
2019-04-06T02:32:00.187Z,0.60
2019-04-06T02:34:30.296Z,0.40
2019-04-06T02:37:00.478Z,0.50
2019-04-06T02:39:30.621Z,0.60
2019-04-06T02:42:06.783Z,0.60
2019-04-06T02:44:35.294Z,0.60
2019-04-06T02:47:04.051Z,0.50
2019-04-06T02:49:32.576Z,0.40
2019-04-06T02:52:01.303Z,0.50
2019-04-06T02:54:29.818Z,0.40
2019-04-06T02:56:58.306Z,0.50
2019-04-06T02:59:26.849Z,0.40
2019-04-06T03:01:55.335Z,0.40
2019-04-06T03:04:23.909Z,0.50
2019-04-06T03:06:52.446Z,0.30
2019-04-06T03:09:20.889Z,0.47
2019-04-06T03:11:49.333Z,0.60
2019-04-06T03:14:18.145Z,0.40
2019-04-06T03:16:46.608Z,0.40
2019-04-06T03:19:15.410Z,0.40
2019-04-06T03:21:43.849Z,0.33
2019-04-06T03:24:12.825Z,0.50
2019-04-06T03:26:41.673Z,0.33
2019-04-06T03:29:10.565Z,0.50
2019-04-06T03:31:39.362Z,0.40
2019-04-06T03:34:07.925Z,0.30
2019-04-06T03:36:36.460Z,0.40
2019-04-06T03:39:07.670Z,0.30
2019-04-06T03:41:36.222Z,0.40
2019-04-06T03:44:04.825Z,0.50
2019-04-06T03:46:33.266Z,0.50
2019-04-06T03:49:02.001Z,0.47
2019-04-06T03:51:30.540Z,0.43
2019-04-06T03:53:59.264Z,0.50
2019-04-06T03:56:27.737Z,0.40
2019-04-06T03:58:56.438Z,0.40
2019-04-06T04:01:25.322Z,0.37
2019-04-06T04:03:54.111Z,0.37
2019-04-06T04:06:22.583Z,0.50
2019-04-06T04:08:51.049Z,0.40
2019-04-06T04:11:19.610Z,0.47
2019-04-06T04:13:48.078Z,0.60
2019-04-06T04:16:16.829Z,0.50
2019-04-06T04:18:45.695Z,0.53
2019-04-06T04:21:14.160Z,0.40
2019-04-06T04:23:42.613Z,0.83
2019-04-06T04:26:11.066Z,0.47
2019-04-06T04:28:39.532Z,0.47
2019-04-06T04:31:07.970Z,0.40
2019-04-06T04:33:36.438Z,0.43
2019-04-06T04:36:05.026Z,0.40
2019-04-06T04:38:33.459Z,0.30
2019-04-06T04:41:02.234Z,0.60
2019-04-06T04:43:30.870Z,0.50
2019-04-06T04:45:59.393Z,0.50
2019-04-06T04:48:27.856Z,0.40
2019-04-06T04:50:56.296Z,0.60
2019-04-06T04:53:24.736Z,0.43
2019-04-06T04:55:53.209Z,0.53
2019-04-06T04:58:21.657Z,0.30
2019-04-06T05:00:50.183Z,0.57
2019-04-06T05:03:19.293Z,0.47
2019-04-06T05:05:47.963Z,0.50
2019-04-06T05:08:16.406Z,0.57
2019-04-06T05:10:44.873Z,0.60
2019-04-06T05:13:13.495Z,0.50
2019-04-06T05:15:54.147Z,0.50
2019-04-06T05:18:22.886Z,0.50
2019-04-06T05:20:51.320Z,0.53
2019-04-06T05:23:19.870Z,0.50
2019-04-06T05:25:48.305Z,0.60
2019-04-06T05:28:16.750Z,0.60
2019-04-06T05:30:45.216Z,0.30
2019-04-06T05:33:13.661Z,0.30
2019-04-06T05:35:42.454Z,0.50
2019-04-06T05:38:10.923Z,0.50
2019-04-06T05:40:39.718Z,0.70
2019-04-06T05:43:08.152Z,0.70
2019-04-06T05:45:36.617Z,0.80
2019-04-06T05:48:05.367Z,0.60
2019-04-06T05:50:33.900Z,0.60
2019-04-06T05:53:02.638Z,0.70
2019-04-06T05:55:31.955Z,0.70
2019-04-06T05:58:03.940Z,1.10
2019-04-06T06:00:30.777Z,0.93
2019-04-06T06:02:59.380Z,0.77
2019-04-06T06:05:27.924Z,0.63
2019-04-06T06:07:56.432Z,0.80
2019-04-06T06:10:24.882Z,0.80
2019-04-06T06:12:53.345Z,0.60
2019-04-06T06:15:22.142Z,0.80
2019-04-06T06:17:50.802Z,0.60
2019-04-06T06:23:50.928Z,0.70
2019-04-06T06:26:19.763Z,0.60
2019-04-06T06:28:48.236Z,0.60
2019-04-06T06:31:17.290Z,0.70
2019-04-06T06:33:46.118Z,0.70
2019-04-06T06:36:15.011Z,0.87
2019-04-06T06:38:43.814Z,1.43
2019-04-06T06:41:12.213Z,2.23
2019-04-06T06:43:40.724Z,1.60
2019-04-06T06:46:09.165Z,1.43
2019-04-06T06:48:37.670Z,1.67
2019-04-06T06:51:06.556Z,0.77
2019-04-06T06:53:35.422Z,0.60
2019-04-06T06:56:03.959Z,1.00
2019-04-06T06:58:32.405Z,0.70
2019-04-06T07:01:03.230Z,0.63
2019-04-06T07:03:31.709Z,0.83
2019-04-06T07:06:00.357Z,0.90
2019-04-06T07:08:29.154Z,1.27
2019-04-06T07:10:57.592Z,1.00
2019-04-06T07:13:26.030Z,1.00
2019-04-06T07:15:54.506Z,1.73
2019-04-06T07:18:23.291Z,1.70
2019-04-06T07:20:51.827Z,1.67
2019-04-06T07:23:20.227Z,1.70
2019-04-06T07:25:57.354Z,1.77
2019-04-06T07:28:18.897Z,1.47
2019-04-06T07:30:47.295Z,0.97
2019-04-06T07:33:15.781Z,0.93
2019-04-06T07:35:44.261Z,1.00
2019-04-06T07:38:12.798Z,0.90
2019-04-06T07:40:41.765Z,1.50
2019-04-06T07:43:10.232Z,1.20
2019-04-06T07:45:38.672Z,1.20
2019-04-06T07:48:07.118Z,1.20
2019-04-06T07:50:36.006Z,1.27
2019-04-06T07:53:04.522Z,1.70
2019-04-06T07:55:32.966Z,1.63
2019-04-06T07:58:01.425Z,2.67
2019-04-06T08:00:29.868Z,2.20
2019-04-06T08:02:58.314Z,2.30
2019-04-06T08:05:26.781Z,1.70
2019-04-06T08:07:55.277Z,1.73
2019-04-06T08:10:23.824Z,1.77
2019-04-06T08:12:52.293Z,2.10
2019-04-06T08:15:20.817Z,2.30
2019-04-06T08:17:49.403Z,1.80
2019-04-06T08:20:17.880Z,1.97
2019-04-06T08:22:46.398Z,1.80
2019-04-06T08:25:14.904Z,1.87
2019-04-06T08:27:43.415Z,2.40
2019-04-06T08:30:12.264Z,2.10
2019-04-06T08:32:41.194Z,2.20
2019-04-06T08:35:10.072Z,2.00
2019-04-06T08:37:38.890Z,2.10
2019-04-06T08:40:08.951Z,2.27
2019-04-06T08:42:37.791Z,2.10
2019-04-06T08:45:07.031Z,2.20
2019-04-06T08:47:35.531Z,2.10
2019-04-06T08:50:06.609Z,2.07
2019-04-06T08:52:35.058Z,2.40
2019-04-06T08:55:04.585Z,1.80
2019-04-06T08:57:33.061Z,2.40
2019-04-06T09:00:01.873Z,1.93
2019-04-06T09:02:30.316Z,2.10
2019-04-06T09:04:59.131Z,2.63
2019-04-06T09:07:27.581Z,1.83
2019-04-06T09:09:56.456Z,1.93
2019-04-06T09:12:25.074Z,2.20
2019-04-06T09:14:53.884Z,2.13
2019-04-06T09:17:22.322Z,2.03
2019-04-06T09:19:51.299Z,2.03
2019-04-06T09:22:19.873Z,2.30
2019-04-06T09:24:48.621Z,2.10
2019-04-06T09:27:17.163Z,1.70
2019-04-06T09:29:45.620Z,1.40
2019-04-06T09:32:14.359Z,1.73
2019-04-06T09:34:43.082Z,1.60
2019-04-06T09:37:12.064Z,1.43
2019-04-06T09:39:40.513Z,1.33
2019-04-06T09:42:08.960Z,1.60
2019-04-06T09:44:44.920Z,1.70
2019-04-06T09:47:28.729Z,1.70
2019-04-06T09:49:59.102Z,1.50
2019-04-06T09:52:41.193Z,1.57
2019-04-06T09:55:14.278Z,1.93
2019-04-06T09:58:00.104Z,1.70
2019-04-06T10:00:30.359Z,1.40
2019-04-06T10:03:06.499Z,1.50
2019-04-06T10:05:36.921Z,1.40
2019-04-06T10:08:16.049Z,1.50
2019-04-06T10:10:49.178Z,1.60
2019-04-06T10:13:25.391Z,1.60
2019-04-06T10:16:01.269Z,1.70
2019-04-06T10:18:49.310Z,1.40
2019-04-06T10:21:25.427Z,1.10
2019-04-06T10:23:55.533Z,1.70
2019-04-06T10:26:25.625Z,1.10
2019-04-06T10:29:10.773Z,1.10
2019-04-06T10:31:46.640Z,1.40
2019-04-06T10:34:17.048Z,1.30
2019-04-06T10:36:47.128Z,1.30
2019-04-06T10:39:17.212Z,1.40
2019-04-06T10:42:02.369Z,1.27
2019-04-06T10:44:48.822Z,1.63
2019-04-06T10:47:37.932Z,1.03
2019-04-06T10:50:20.428Z,1.37
2019-04-06T10:53:06.844Z,1.47
2019-04-06T10:55:46.045Z,1.33
2019-04-06T10:58:28.041Z,1.47
2019-04-06T11:00:58.157Z,1.57
2019-04-06T11:03:28.756Z,1.80
2019-04-06T11:06:01.911Z,2.03
2019-04-06T11:08:34.476Z,1.77
2019-04-06T11:11:08.026Z,1.43
2019-04-06T11:13:54.518Z,1.50
2019-04-06T11:16:40.874Z,1.70
2019-04-06T11:19:13.945Z,1.70
2019-04-06T11:21:55.806Z,1.83
2019-04-06T11:24:28.754Z,1.50
2019-04-06T11:27:15.369Z,1.50
2019-04-06T11:29:45.787Z,1.43
2019-04-06T11:32:18.932Z,1.37
2019-04-06T11:34:52.175Z,1.60
2019-04-06T11:37:25.165Z,1.60
2019-04-06T11:39:58.288Z,1.73
2019-04-06T11:42:28.464Z,2.13
2019-04-06T11:45:01.271Z,1.60
2019-04-06T11:47:48.214Z,1.27
2019-04-06T11:50:33.738Z,1.50
2019-04-06T11:53:06.825Z,1.40
2019-04-06T11:55:39.706Z,1.83
2019-04-06T11:58:24.893Z,1.70
2019-04-06T12:01:11.654Z,1.57
2019-04-06T12:03:41.950Z,1.93
2019-04-06T12:06:15.415Z,1.60
2019-04-06T12:08:48.641Z,1.73
2019-04-06T12:11:21.631Z,1.77
2019-04-06T12:13:54.782Z,1.83
2019-04-06T12:16:25.225Z,1.80
2019-04-06T12:19:10.404Z,1.80
2019-04-06T12:21:40.826Z,1.90
2019-04-06T12:24:16.818Z,2.03
2019-04-06T12:27:01.990Z,1.93
2019-04-06T12:29:32.100Z,2.00
2019-04-06T12:32:08.281Z,2.10
2019-04-06T12:34:44.399Z,1.97
2019-04-06T12:37:17.161Z,2.00
2019-04-06T12:39:53.054Z,2.00
2019-04-06T12:42:37.224Z,1.80
2019-04-06T12:45:08.682Z,1.57
2019-04-06T12:47:41.915Z,1.70
2019-04-06T12:50:12.239Z,2.00
2019-04-06T12:52:44.812Z,1.63
2019-04-06T12:55:15.096Z,2.30
2019-04-06T12:58:00.326Z,2.30
2019-04-06T13:00:52.765Z,1.80
2019-04-06T13:03:24.738Z,2.37
2019-04-06T13:06:11.548Z,1.90
2019-04-06T13:08:44.524Z,2.23
2019-04-06T13:11:23.807Z,1.80
2019-04-06T13:13:57.131Z,2.30
2019-04-06T13:16:28.155Z,2.17
2019-04-06T13:19:14.899Z,2.23
2019-04-06T13:21:45.004Z,2.40
2019-04-06T13:24:15.093Z,2.33
2019-04-06T13:26:45.190Z,2.90
2019-04-06T13:29:18.188Z,2.80
2019-04-06T13:31:54.479Z,3.00
2019-04-06T13:34:24.596Z,2.40
2019-04-06T13:37:01.102Z,2.57
2019-04-06T13:39:49.552Z,2.60
2019-04-06T13:42:20.105Z,2.67
2019-04-06T13:44:50.272Z,3.10
2019-04-06T13:47:23.436Z,2.77
2019-04-06T13:49:54.068Z,2.90
2019-04-06T13:52:26.900Z,2.43
2019-04-06T13:55:13.946Z,2.30
2019-04-06T13:57:50.835Z,2.60
2019-04-06T14:00:24.507Z,2.30
2019-04-06T14:02:58.001Z,2.40
2019-04-06T14:05:44.818Z,2.60
2019-04-06T14:08:17.652Z,2.60
2019-04-06T14:11:03.015Z,2.20
2019-04-06T14:13:33.509Z,2.27
2019-04-06T14:16:15.388Z,2.20
2019-04-06T14:18:45.499Z,2.07
2019-04-06T14:21:15.945Z,1.90
2019-04-06T14:23:46.366Z,2.20
2019-04-06T14:26:20.035Z,1.77
2019-04-06T14:28:50.325Z,2.03
2019-04-06T14:31:36.440Z,2.10
2019-04-06T14:34:21.790Z,1.90
2019-04-06T14:36:58.177Z,2.20
2019-04-06T14:39:34.006Z,2.40
2019-04-06T14:42:13.923Z,2.07
2019-04-06T14:44:44.562Z,2.33
2019-04-06T14:47:15.239Z,2.80
2019-04-06T14:49:45.429Z,2.33
2019-04-06T14:52:27.525Z,2.10
2019-04-06T14:54:58.073Z,2.47
2019-04-06T14:57:34.950Z,2.47
2019-04-06T15:00:17.474Z,2.03
2019-04-06T15:02:50.299Z,2.30
2019-04-06T15:05:20.447Z,2.73
2019-04-06T15:07:50.596Z,2.83
2019-04-06T15:10:23.510Z,2.43
2019-04-06T15:12:56.945Z,2.60
2019-04-06T15:15:38.990Z,3.03
2019-04-06T15:18:18.445Z,2.53
2019-04-06T15:20:48.637Z,2.57
2019-04-06T15:23:25.380Z,2.20
2019-04-06T15:25:59.098Z,2.20
2019-04-06T15:28:41.788Z,2.33
2019-04-06T15:31:19.729Z,2.37
2019-04-06T15:33:58.442Z,2.40
2019-04-06T15:36:44.646Z,2.40
2019-04-06T15:39:27.308Z,2.40
2019-04-06T15:42:12.423Z,2.30
2019-04-06T15:44:45.932Z,2.33
2019-04-06T15:47:26.725Z,2.17
2019-04-06T15:50:12.098Z,2.30
2019-04-06T15:52:42.217Z,2.50
2019-04-06T15:55:28.356Z,2.87
2019-04-06T15:58:00.232Z,2.10
2019-04-06T16:00:40.045Z,2.20
2019-04-06T16:03:26.941Z,2.60
2019-04-06T16:06:04.914Z,2.40
2019-04-06T16:08:35.466Z,2.60
2019-04-06T16:11:14.746Z,2.23
2019-04-06T16:14:01.657Z,2.10
2019-04-06T16:16:48.292Z,2.40
2019-04-06T16:19:33.818Z,2.50
2019-04-06T16:22:06.814Z,2.13
2019-04-06T16:24:42.725Z,1.80
2019-04-06T16:27:31.112Z,2.10
2019-04-06T16:30:16.335Z,1.90
2019-04-06T16:32:58.321Z,2.03
2019-04-06T16:35:28.476Z,2.40
2019-04-06T16:38:14.802Z,2.23
2019-04-06T16:40:45.279Z,2.30
2019-04-06T16:43:21.659Z,2.20
2019-04-06T16:46:08.978Z,2.20
2019-04-06T16:48:39.482Z,2.20
2019-04-06T16:51:12.291Z,2.30
2019-04-06T16:53:48.709Z,3.23
2019-04-06T16:56:25.049Z,4.00
2019-04-06T16:59:13.545Z,2.60
2019-04-06T17:01:43.763Z,2.40
2019-04-06T17:04:16.905Z,2.20
2019-04-06T17:06:56.021Z,7.80
2019-04-06T17:09:34.218Z,2.93
2019-04-06T17:12:20.016Z,2.20
2019-04-06T17:15:06.745Z,2.13
2019-04-06T17:17:53.731Z,2.37
2019-04-06T17:20:35.930Z,2.10
2019-04-06T17:23:21.120Z,2.20
2019-04-06T17:25:57.252Z,1.93
2019-04-06T17:28:30.501Z,2.10
2019-04-06T17:31:17.347Z,1.80
2019-04-06T17:33:50.697Z,2.10
2019-04-06T17:36:32.961Z,2.07
2019-04-06T17:39:15.106Z,2.40
2019-04-06T17:42:02.116Z,2.20
2019-04-06T17:44:35.246Z,2.17
2019-04-06T17:47:22.291Z,2.43
2019-04-06T17:50:08.620Z,2.30
2019-04-06T17:52:41.700Z,2.23
2019-04-06T17:55:14.489Z,2.20
2019-04-06T17:58:00.534Z,2.17
2019-04-06T18:00:36.111Z,2.30
2019-04-06T18:03:18.589Z,2.50
2019-04-06T18:06:07.118Z,2.27
2019-04-06T18:11:22.603Z,3.33
2019-04-06T18:13:51.228Z,3.30
2019-04-06T18:16:22.057Z,2.67
2019-04-06T18:18:51.095Z,2.43
2019-04-06T18:21:19.959Z,2.10
2019-04-06T18:23:48.861Z,2.27
2019-04-06T18:26:19.138Z,2.50
2019-04-06T18:28:47.553Z,1.90
2019-04-06T18:31:26.629Z,2.00
2019-04-06T18:33:55.101Z,2.20
2019-04-06T18:36:25.432Z,1.80
2019-04-06T18:39:01.717Z,1.90
2019-04-06T18:41:30.322Z,1.97
2019-04-06T18:43:58.869Z,2.53
2019-04-06T18:46:27.471Z,7.73
2019-04-06T18:48:56.687Z,3.00
2019-04-06T18:51:25.915Z,1.80
2019-04-06T18:53:54.852Z,2.00
2019-04-06T18:56:23.332Z,3.87
2019-04-06T18:58:51.782Z,3.90
2019-04-06T19:01:20.361Z,2.63
2019-04-06T19:03:49.041Z,4.50
2019-04-06T19:06:17.887Z,6.90
2019-04-06T19:08:46.844Z,2.23
2019-04-06T19:11:15.400Z,2.50
2019-04-06T19:13:44.317Z,2.00
2019-04-06T19:16:12.897Z,1.80
2019-04-06T19:18:41.336Z,1.73
2019-04-06T19:21:09.798Z,2.03
2019-04-06T19:23:38.345Z,2.20
2019-04-06T19:26:07.359Z,2.13
2019-04-06T19:28:36.101Z,2.07
2019-04-06T19:31:04.628Z,2.03
2019-04-06T19:33:33.188Z,1.80
2019-04-06T19:36:02.152Z,1.67
2019-04-06T19:38:30.761Z,1.80
2019-04-06T19:40:59.683Z,1.90
2019-04-06T19:43:28.504Z,1.73
2019-04-06T19:45:57.107Z,2.20
2019-04-06T19:48:25.853Z,2.07
2019-04-06T19:50:54.650Z,1.60
2019-04-06T19:53:23.130Z,2.77
2019-04-06T19:55:52.045Z,2.00
2019-04-06T19:58:20.581Z,1.87
2019-04-06T20:00:49.906Z,1.60
2019-04-06T20:03:19.068Z,1.80
2019-04-06T20:05:47.675Z,1.77
2019-04-06T20:08:16.122Z,1.50
2019-04-06T20:10:45.349Z,1.93
2019-04-06T20:13:14.417Z,2.40
2019-04-06T20:15:42.969Z,2.03
2019-04-06T20:18:11.729Z,2.33
2019-04-06T20:20:40.268Z,2.07
2019-04-06T20:23:08.713Z,2.10
2019-04-06T20:25:37.406Z,2.13
2019-04-06T20:28:05.960Z,1.80
2019-04-06T20:30:34.408Z,1.77
2019-04-06T20:33:04.251Z,1.97
2019-04-06T20:35:32.876Z,1.70
2019-04-06T20:38:01.624Z,1.67
2019-04-06T20:40:30.061Z,1.60
2019-04-06T20:42:58.527Z,1.40
2019-04-06T20:45:26.968Z,1.73
2019-04-06T20:47:55.375Z,1.70
2019-04-06T20:50:24.379Z,1.60
2019-04-06T20:52:53.401Z,1.50
2019-04-06T20:55:22.330Z,1.53
2019-04-06T20:57:50.945Z,1.77
2019-04-06T21:00:20.423Z,1.57
2019-04-06T21:02:49.061Z,1.60
2019-04-06T21:05:17.584Z,1.90
2019-04-06T21:07:46.221Z,1.70
2019-04-06T21:10:15.421Z,1.40
2019-04-06T21:12:44.254Z,1.50
2019-04-06T21:15:18.316Z,2.07
2019-04-06T21:17:43.004Z,1.30
2019-04-06T21:20:11.798Z,1.37
2019-04-06T21:22:40.817Z,1.70
2019-04-06T21:25:10.039Z,1.97
2019-04-06T21:27:38.712Z,1.53
2019-04-06T21:30:09.195Z,1.47
2019-04-06T21:32:38.155Z,1.30
2019-04-06T21:35:07.392Z,1.83
2019-04-06T21:37:35.959Z,1.50
2019-04-06T21:40:05.480Z,1.60
2019-04-06T21:42:34.536Z,1.30
2019-04-06T21:45:03.889Z,1.80
2019-04-06T21:47:32.482Z,1.77
2019-04-06T21:50:00.956Z,1.80
2019-04-06T21:52:29.529Z,1.73
2019-04-06T21:54:58.266Z,2.00
2019-04-06T21:57:27.264Z,1.43
2019-04-06T21:59:56.325Z,1.60
2019-04-06T22:02:24.993Z,1.63
2019-04-06T22:04:54.484Z,1.70
2019-04-06T22:07:23.313Z,1.60
2019-04-06T22:09:52.215Z,1.10
2019-04-06T22:12:21.671Z,2.00
2019-04-06T22:14:50.651Z,1.73
2019-04-06T22:17:19.814Z,1.30
2019-04-06T22:19:48.593Z,1.30
2019-04-06T22:22:17.033Z,1.97
2019-04-06T22:24:45.473Z,1.90
2019-04-06T22:27:14.217Z,1.60
2019-04-06T22:29:43.352Z,1.70
2019-04-06T22:32:12.032Z,1.60
2019-04-06T22:34:42.485Z,1.73
2019-04-06T22:37:11.022Z,1.33
2019-04-06T22:39:39.829Z,1.80
2019-04-06T22:42:08.901Z,1.73
2019-04-06T22:44:37.424Z,1.90
2019-04-06T22:47:05.973Z,1.73
2019-04-06T22:49:34.927Z,1.60
2019-04-06T22:52:03.495Z,1.80
2019-04-06T22:54:32.265Z,1.60
2019-04-06T22:57:01.067Z,1.60
2019-04-06T22:59:29.898Z,1.70
2019-04-06T23:01:58.632Z,1.43
2019-04-06T23:04:46.604Z,1.47
2019-04-06T23:07:07.536Z,1.63
2019-04-06T23:09:36.177Z,1.93
2019-04-06T23:12:05.270Z,1.77
2019-04-06T23:14:34.229Z,1.80
2019-04-06T23:17:03.661Z,1.20
2019-04-06T23:19:32.645Z,1.57
2019-04-06T23:22:01.259Z,1.57
2019-04-06T23:24:30.704Z,1.70
2019-04-06T23:26:59.334Z,1.90
2019-04-06T23:29:28.189Z,1.90
2019-04-06T23:31:56.629Z,1.83
2019-04-06T23:34:25.172Z,1.90
2019-04-06T23:36:53.612Z,1.53
2019-04-06T23:39:22.060Z,1.57
2019-04-06T23:41:50.906Z,1.60
2019-04-06T23:44:19.349Z,1.97
2019-04-06T23:46:48.033Z,1.53
2019-04-06T23:49:17.865Z,1.33
2019-04-06T23:51:46.765Z,1.90
2019-04-06T23:54:15.925Z,1.83
2019-04-06T23:56:44.556Z,1.80
2019-04-06T23:59:13.075Z,1.50
